Time;durP1;ratioP1;P1;durP2;ratioP2;P2;SDS_P1;SDS_P2;PMS_P1;PMS_P2;Temp;Humidity;BMP_temperature;BMP_pressure;BME280_temperature;BME280_humidity;BME280_pressure;Samples;Min_cycle;Max_cycle;Signal;HPM_P1;HPM_P2
2022/12/24 00:00:04;;;;;;;24.20;13.65;;;6.50;99.90;;;;;;5160340;27;20110;-59
2022/12/24 00:02:30;;;;;;;26.77;12.57;;;6.30;99.90;;;;;;5159075;27;20050;-59
2022/12/24 00:04:56;;;;;;;23.20;13.25;;;6.70;99.90;;;;;;5160155;27;20031;-59
2022/12/24 00:07:21;;;;;;;25.23;14.50;;;6.60;99.90;;;;;;5159030;27;20137;-58
2022/12/24 00:09:47;;;;;;;26.77;15.18;;;6.60;99.90;;;;;;5160097;27;20049;-58
2022/12/24 00:12:12;;;;;;;26.10;14.07;;;6.80;99.90;;;;;;5159260;27;20050;-58
2022/12/24 00:14:38;;;;;;;27.58;13.73;;;6.40;99.90;;;;;;5159480;27;20138;-59
2022/12/24 00:17:04;;;;;;;27.05;14.95;;;6.40;99.90;;;;;;5159727;27;20046;-58
2022/12/24 00:19:30;;;;;;;24.02;14.18;;;6.70;99.90;;;;;;5158876;27;20041;-58
2022/12/24 00:21:55;;;;;;;25.02;13.80;;;6.70;99.90;;;;;;5160007;27;20098;-58
2022/12/24 00:24:21;;;;;;;25.15;14.38;;;6.70;99.90;;;;;;5158844;27;20086;-57
2022/12/24 00:26:46;;;;;;;26.92;14.35;;;6.40;99.90;;;;;;5159543;27;20072;-58
2022/12/24 00:29:12;;;;;;;25.73;14.90;;;6.50;99.90;;;;;;5140192;27;20027;-58
2022/12/24 00:31:38;;;;;;;26.58;15.20;;;6.60;99.90;;;;;;5159608;27;20067;-58
2022/12/24 00:34:03;;;;;;;23.52;13.43;;;6.60;99.90;;;;;;5159238;27;20050;-58
2022/12/24 00:36:29;;;;;;;23.40;13.65;;;6.50;99.90;;;;;;5140669;27;20049;-58
2022/12/24 00:38:54;;;;;;;25.85;13.82;;;6.40;99.90;;;;;;5159584;27;20098;-58
2022/12/24 00:41:23;;;;;;;26.30;14.23;;;6.40;99.90;;;;;;5158700;27;20034;-58
2022/12/24 00:44:04;;;;;;;26.17;14.73;;;6.70;99.90;;;;;;5159350;27;20049;-58
2022/12/24 00:46:31;;;;;;;26.80;14.38;;;6.50;99.90;;;;;;5158947;27;20123;-58
2022/12/24 00:48:57;;;;;;;23.05;13.55;;;6.50;99.90;;;;;;5159102;27;20056;-58
2022/12/24 00:51:24;;;;;;;26.45;14.13;;;6.40;99.90;;;;;;5159324;27;20047;-58
2022/12/24 00:53:50;;;;;;;26.83;14.80;;;6.40;99.90;;;;;;5158519;27;20039;-59
2022/12/24 00:56:16;;;;;;;26.73;15.13;;;6.70;99.90;;;;;;5144502;27;20167;-58
2022/12/24 00:58:42;;;;;;;27.23;14.40;;;6.70;99.90;;;;;;5119264;28;20043;-58
2022/12/24 01:01:08;;;;;;;26.65;13.80;;;6.70;99.90;;;;;;5138645;28;20134;-59
2022/12/24 01:03:36;;;;;;;28.08;14.65;;;6.70;99.90;;;;;;5137858;28;20050;-59
2022/12/24 01:06:04;;;;;;;29.42;15.05;;;6.70;99.90;;;;;;5138362;27;20051;-59
2022/12/24 01:08:31;;;;;;;26.33;13.90;;;6.40;99.90;;;;;;5142479;27;20410;-59
2022/12/24 01:10:57;;;;;;;26.58;14.18;;;6.60;99.90;;;;;;5142103;27;20039;-58
2022/12/24 01:13:23;;;;;;;26.98;14.60;;;6.70;99.90;;;;;;5123209;27;20105;-58
2022/12/24 01:15:49;;;;;;;29.08;15.25;;;6.50;99.90;;;;;;5141984;27;20043;-58
2022/12/24 01:18:15;;;;;;;27.48;15.43;;;6.70;99.90;;;;;;5142231;27;20043;-58
2022/12/24 01:20:41;;;;;;;27.55;16.02;;;6.80;99.90;;;;;;5141561;27;20035;-58
2022/12/24 01:23:07;;;;;;;26.88;15.60;;;6.80;99.90;;;;;;5142176;27;20039;-59
2022/12/24 01:25:33;;;;;;;26.50;15.80;;;7.10;99.90;;;;;;5142234;27;20068;-58
2022/12/24 01:27:58;;;;;;;25.60;14.90;;;6.80;99.90;;;;;;5141682;27;20079;-59
2022/12/24 01:30:24;;;;;;;27.23;15.32;;;6.80;99.90;;;;;;5141994;27;20035;-58
2022/12/24 01:32:50;;;;;;;26.00;14.27;;;6.80;99.90;;;;;;5141415;27;20046;-59
2022/12/24 01:35:16;;;;;;;35.17;15.82;;;6.80;99.90;;;;;;5141740;27;20399;-56
2022/12/24 01:37:42;;;;;;;27.95;16.15;;;6.40;99.90;;;;;;5141463;27;20051;-57
2022/12/24 01:45:46;;;;;;;28.30;14.77;;;6.50;99.90;;;;;;5140906;27;20049;-57
2022/12/24 01:48:28;;;;;;;29.55;15.70;;;6.40;99.90;;;;;;5141565;27;20150;-57
2022/12/24 01:51:00;;;;;;;27.67;15.00;;;6.50;99.90;;;;;;5141485;27;20340;-57
2022/12/24 01:53:27;;;;;;;31.60;15.48;;;6.50;99.90;;;;;;5122611;27;20401;-58
2022/12/24 01:55:53;;;;;;;29.25;16.13;;;6.80;99.90;;;;;;5153127;27;20083;-58
2022/12/24 01:58:21;;;;;;;28.85;15.52;;;6.80;99.90;;;;;;5161510;27;20543;-57
2022/12/24 02:00:47;;;;;;;29.00;15.77;;;6.60;99.90;;;;;;5162009;27;20042;-58
2022/12/24 02:03:13;;;;;;;26.55;15.40;;;6.60;99.90;;;;;;5161920;27;20031;-58
2022/12/24 02:05:51;;;;;;;30.02;15.68;;;6.50;99.90;;;;;;5143442;27;20042;-58
2022/12/24 02:08:17;;;;;;;29.67;15.43;;;6.80;99.90;;;;;;5162527;27;20074;-58
2022/12/24 02:10:45;;;;;;;28.80;16.02;;;6.40;99.90;;;;;;5161129;27;20039;-58
2022/12/24 02:13:13;;;;;;;30.48;16.55;;;6.80;99.90;;;;;;5161584;27;20107;-60
2022/12/24 02:15:57;;;;;;;29.08;16.27;;;6.70;99.90;;;;;;5142974;27;20058;-59
2022/12/24 02:18:48;;;;;;;28.02;15.27;;;6.80;99.90;;;;;;5161336;27;20042;-59
2022/12/24 02:21:16;;;;;;;28.98;16.55;;;6.40;99.90;;;;;;5143348;27;20042;-58
2022/12/24 02:23:54;;;;;;;30.90;16.63;;;6.40;99.90;;;;;;5161159;27;20035;-59
2022/12/24 02:26:41;;;;;;;31.10;17.00;;;6.70;99.90;;;;;;5161578;27;20050;-59
2022/12/24 02:29:28;;;;;;;32.50;15.98;;;6.40;99.90;;;;;;5161100;27;20047;-58
2022/12/24 02:32:13;;;;;;;33.40;16.50;;;6.70;99.90;;;;;;5161218;27;20058;-58
2022/12/24 02:34:45;;;;;;;35.30;17.45;;;6.40;99.90;;;;;;5161555;27;20042;-59
2022/12/24 02:37:17;;;;;;;36.42;18.23;;;6.70;99.90;;;;;;5161045;27;20043;-58
2022/12/24 02:39:49;;;;;;;32.58;16.95;;;6.50;99.90;;;;;;5161408;27;20039;-58
2022/12/24 02:42:21;;;;;;;33.35;17.67;;;6.40;99.90;;;;;;5161136;27;20095;-59
2022/12/24 02:44:51;;;;;;;32.57;18.23;;;6.80;99.90;;;;;;5160670;27;20057;-58
2022/12/24 02:47:21;;;;;;;35.38;17.02;;;6.30;99.90;;;;;;5161637;27;20090;-59
2022/12/24 02:49:47;;;;;;;34.75;18.08;;;6.50;99.90;;;;;;5160504;27;20091;-59
2022/12/24 02:52:28;;;;;;;33.95;17.35;;;6.40;99.90;;;;;;5161035;27;20030;-58
2022/12/24 02:54:54;;;;;;;30.23;16.90;;;6.50;99.90;;;;;;5157430;27;20074;-58
2022/12/24 02:57:40;;;;;;;37.10;17.25;;;6.50;99.90;;;;;;5139934;27;20570;-58
2022/12/24 03:00:09;;;;;;;37.90;18.02;;;6.40;99.90;;;;;;5140147;27;20070;-58
2022/12/24 03:02:44;;;;;;;38.97;18.10;;;6.90;99.90;;;;;;5120813;27;20043;-58
2022/12/24 03:05:19;;;;;;;34.53;18.38;;;6.80;99.90;;;;;;5140349;27;20043;-58
2022/12/24 03:07:57;;;;;;;34.08;18.15;;;6.60;99.90;;;;;;5139664;27;20049;-58
2022/12/24 03:10:36;;;;;;;34.95;16.83;;;6.90;99.90;;;;;;5139426;27;20066;-58
2022/12/24 03:13:09;;;;;;;33.38;17.63;;;6.50;99.90;;;;;;5140314;27;20055;-58
2022/12/24 03:15:37;;;;;;;31.95;17.70;;;7.00;99.90;;;;;;5138586;27;20086;-58
2022/12/24 03:18:06;;;;;;;33.58;18.63;;;6.60;99.90;;;;;;5140337;27;20047;-58
2022/12/24 03:20:42;;;;;;;36.67;18.48;;;6.60;99.90;;;;;;5139088;27;20051;-57
2022/12/24 03:23:08;;;;;;;38.30;18.45;;;6.60;99.90;;;;;;5120998;27;20477;-59
2022/12/24 03:25:37;;;;;;;35.72;18.30;;;7.00;99.90;;;;;;5140051;27;20039;-57
2022/12/24 03:28:05;;;;;;;33.10;17.88;;;6.70;99.90;;;;;;5120413;27;20312;-57
2022/12/24 03:30:31;;;;;;;37.30;18.65;;;7.00;99.90;;;;;;5138846;27;20043;-58
2022/12/24 03:32:57;;;;;;;31.85;17.77;;;6.90;99.90;;;;;;5138957;27;20046;-58
2022/12/24 03:35:23;;;;;;;33.58;17.65;;;6.80;99.90;;;;;;5139991;27;20498;-57
2022/12/24 03:37:48;;;;;;;37.83;18.35;;;7.00;99.90;;;;;;5139141;27;20118;-57
2022/12/24 03:40:14;;;;;;;35.55;19.00;;;6.90;99.90;;;;;;5139255;27;20047;-58
2022/12/24 03:42:40;;;;;;;33.20;17.35;;;6.90;99.90;;;;;;5139337;27;20039;-57
2022/12/24 03:45:06;;;;;;;36.95;17.98;;;7.40;99.90;;;;;;5138726;27;20043;-57
2022/12/24 03:47:32;;;;;;;29.77;16.27;;;7.40;99.90;;;;;;5139675;27;20050;-58
2022/12/24 03:49:57;;;;;;;31.65;16.30;;;7.40;99.90;;;;;;5138654;27;20411;-58
2022/12/24 03:52:23;;;;;;;30.42;15.82;;;7.40;99.90;;;;;;5139353;27;20565;-57
2022/12/24 03:54:49;;;;;;;29.50;15.52;;;7.50;99.90;;;;;;5140836;27;20043;-58
2022/12/24 03:57:15;;;;;;;29.58;14.05;;;7.40;99.90;;;;;;5159739;27;20046;-58
2022/12/24 03:59:40;;;;;;;25.55;13.13;;;7.50;99.90;;;;;;5159982;27;20042;-57
2022/12/24 04:02:06;;;;;;;30.65;12.90;;;7.30;99.90;;;;;;5159270;27;20125;-57
2022/12/24 04:04:35;;;;;;;26.23;12.70;;;7.00;99.90;;;;;;5160267;27;20102;-58
2022/12/24 04:07:01;;;;;;;25.92;13.02;;;7.60;99.90;;;;;;5158895;27;20046;-57
2022/12/24 04:09:26;;;;;;;30.10;12.02;;;7.40;99.90;;;;;;5159912;27;20043;-59
2022/12/24 04:11:52;;;;;;;24.77;11.35;;;7.00;99.90;;;;;;5158779;27;20098;-56
2022/12/24 04:14:18;;;;;;;25.05;11.35;;;7.60;99.90;;;;;;5159805;27;20061;-57
2022/12/24 04:16:43;;;;;;;25.38;11.05;;;7.60;99.90;;;;;;5159410;27;20390;-57
2022/12/24 04:19:09;;;;;;;26.77;10.80;;;7.30;99.90;;;;;;5159348;27;20039;-57
2022/12/24 04:21:35;;;;;;;24.67;10.75;;;7.00;99.90;;;;;;5159492;27;20256;-58
2022/12/24 04:24:00;;;;;;;25.48;11.63;;;7.40;99.90;;;;;;5159089;27;20031;-57
2022/12/24 04:26:26;;;;;;;26.55;9.50;;;7.60;99.90;;;;;;5159693;27;20063;-57
2022/12/24 04:28:52;;;;;;;32.03;10.95;;;7.70;99.90;;;;;;5159047;27;20065;-57
2022/12/24 04:31:17;;;;;;;30.13;10.25;;;7.70;99.90;;;;;;5159775;27;20046;-58
2022/12/24 04:33:44;;;;;;;26.83;9.95;;;7.90;99.90;;;;;;5140481;27;20062;-57
2022/12/24 04:36:16;;;;;;;26.95;10.50;;;7.70;99.90;;;;;;5159259;27;20090;-57
2022/12/24 04:38:42;;;;;;;25.23;9.63;;;7.60;99.90;;;;;;5159526;27;20043;-57
2022/12/24 04:41:11;;;;;;;35.40;10.32;;;7.80;99.90;;;;;;5159218;27;20067;-58
2022/12/24 04:43:37;;;;;;;29.42;9.70;;;7.30;99.90;;;;;;5163590;27;20089;-57
2022/12/24 04:46:08;;;;;;;35.92;10.50;;;8.00;99.90;;;;;;5144413;27;20046;-57
2022/12/24 04:48:35;;;;;;;39.47;8.97;;;7.80;99.90;;;;;;5163469;27;20058;-58
2022/12/24 04:51:02;;;;;;;34.53;9.88;;;7.70;99.90;;;;;;5163510;27;20279;-57
2022/12/24 04:53:28;;;;;;;42.30;8.63;;;7.90;99.90;;;;;;5162942;27;20624;-59
2022/12/24 04:55:54;;;;;;;38.10;7.72;;;7.40;99.90;;;;;;5151984;27;20437;-59
2022/12/24 04:58:20;;;;;;;33.13;7.68;;;7.90;99.90;;;;;;5142350;27;20066;-58
2022/12/24 05:00:45;;;;;;;39.17;7.50;;;7.30;99.90;;;;;;5142908;27;20462;-58
2022/12/24 05:03:11;;;;;;;33.63;6.78;;;7.70;99.90;;;;;;5142145;27;20043;-58
2022/12/24 05:05:37;;;;;;;32.63;6.53;;;8.00;99.90;;;;;;5142695;27;20071;-57
2022/12/24 05:08:02;;;;;;;32.15;5.53;;;7.90;99.90;;;;;;5142346;27;20099;-57
2022/12/24 05:10:28;;;;;;;33.33;5.80;;;7.30;99.90;;;;;;5142134;27;20046;-58
2022/12/24 05:12:54;;;;;;;35.35;6.78;;;7.50;99.90;;;;;;5142556;27;20039;-58
2022/12/24 05:15:19;;;;;;;38.92;5.78;;;7.40;99.90;;;;;;5141798;27;20066;-58
2022/12/24 05:17:45;;;;;;;40.67;6.32;;;7.90;99.90;;;;;;5123691;27;20043;-56
2022/12/24 05:20:11;;;;;;;34.47;5.70;;;7.90;99.90;;;;;;5141862;27;20047;-58
2022/12/24 05:28:05;;;;;;;34.97;6.00;;;7.70;99.90;;;;;;5141252;27;20112;-58
2022/12/24 05:30:31;;;;;;;38.50;6.38;;;7.50;99.90;;;;;;5141961;27;20035;-58
2022/12/24 05:32:56;;;;;;;39.50;6.13;;;7.90;99.90;;;;;;5141174;27;20043;-58
2022/12/24 05:35:22;;;;;;;35.55;6.25;;;7.50;99.90;;;;;;5142252;27;20061;-58
2022/12/24 05:37:48;;;;;;;37.47;7.20;;;7.60;99.90;;;;;;5141712;27;20155;-58
2022/12/24 05:40:13;;;;;;;39.40;6.78;;;7.90;99.90;;;;;;5141569;27;20045;-58
2022/12/24 05:42:39;;;;;;;34.72;7.00;;;7.90;99.90;;;;;;5141658;27;20041;-58
2022/12/24 05:45:05;;;;;;;41.22;5.47;;;7.80;99.90;;;;;;5141325;27;20047;-58
2022/12/24 05:47:31;;;;;;;42.35;5.40;;;7.50;99.90;;;;;;5123163;27;20495;-58
2022/12/24 05:49:57;;;;;;;42.38;6.43;;;7.70;99.90;;;;;;5141290;27;20038;-58
2022/12/24 05:52:22;;;;;;;40.17;5.88;;;8.00;99.90;;;;;;5141421;27;20046;-58
2022/12/24 05:54:48;;;;;;;41.47;6.72;;;7.50;99.90;;;;;;5142580;27;20074;-58
2022/12/24 05:57:15;;;;;;;39.67;6.35;;;8.00;99.90;;;;;;5162060;27;20034;-58
2022/12/24 05:59:41;;;;;;;44.88;6.85;;;8.10;99.90;;;;;;5143837;27;20042;-55
2022/12/24 06:02:06;;;;;;;50.95;9.05;;;7.60;99.90;;;;;;5161706;27;20148;-58
2022/12/24 06:04:32;;;;;;;34.35;6.30;;;7.50;99.90;;;;;;5162217;27;20529;-58
2022/12/24 06:06:57;;;;;;;38.20;5.93;;;8.10;99.90;;;;;;5161518;27;20534;-58
2022/12/24 06:09:23;;;;;;;42.97;6.00;;;7.80;99.90;;;;;;5161800;27;20517;-58
2022/12/24 06:11:49;;;;;;;36.70;6.07;;;8.00;99.90;;;;;;5161544;27;20047;-58
2022/12/24 06:14:14;;;;;;;41.00;7.25;;;7.70;99.90;;;;;;5161708;27;20082;-58
2022/12/24 06:16:40;;;;;;;34.38;6.13;;;8.00;99.90;;;;;;5161965;27;20050;-58
2022/12/24 06:19:06;;;;;;;37.60;5.75;;;7.90;99.90;;;;;;5161341;27;20083;-58
2022/12/24 06:21:31;;;;;;;38.47;6.15;;;7.60;99.90;;;;;;5162213;27;20034;-58
2022/12/24 06:23:57;;;;;;;49.38;7.85;;;8.00;99.90;;;;;;5160864;27;20043;-57
2022/12/24 06:26:23;;;;;;;36.72;5.85;;;7.70;99.90;;;;;;5161764;27;20071;-58
2022/12/24 06:28:49;;;;;;;42.40;6.63;;;8.00;99.90;;;;;;5160943;27;20039;-58
2022/12/24 06:31:18;;;;;;;40.75;5.82;;;8.10;99.90;;;;;;5161403;27;20117;-58
2022/12/24 06:33:44;;;;;;;37.70;5.25;;;7.60;99.90;;;;;;5161781;27;20163;-58
2022/12/24 06:36:17;;;;;;;36.90;5.75;;;7.60;99.90;;;;;;5160909;27;20042;-58
2022/12/24 06:38:43;;;;;;;38.83;6.50;;;7.80;99.90;;;;;;5161571;27;20037;-58
2022/12/24 06:41:09;;;;;;;39.97;5.65;;;7.80;99.90;;;;;;5142216;27;20046;-59
2022/12/24 06:43:34;;;;;;;39.67;7.53;;;7.90;99.90;;;;;;5161150;27;20097;-58
2022/12/24 06:46:01;;;;;;;45.45;7.50;;;8.00;99.90;;;;;;5160607;27;20047;-57
2022/12/24 06:48:27;;;;;;;49.83;6.15;;;7.50;99.90;;;;;;5161259;27;20501;-58
2022/12/24 06:50:52;;;;;;;35.17;6.25;;;7.40;99.90;;;;;;5161456;27;20039;-58
2022/12/24 06:53:18;;;;;;;36.33;5.55;;;7.80;99.90;;;;;;5160750;27;20170;-58
2022/12/24 06:55:44;;;;;;;39.75;6.43;;;7.60;99.90;;;;;;5150979;27;20039;-58
2022/12/24 06:58:09;;;;;;;37.80;6.63;;;7.40;99.90;;;;;;5139454;27;20075;-58
2022/12/24 07:00:35;;;;;;;45.47;6.88;;;7.30;99.90;;;;;;5140401;27;20058;-58
2022/12/24 07:03:01;;;;;;;31.00;4.57;;;7.50;99.90;;;;;;5139467;27;20394;-58
2022/12/24 07:05:27;;;;;;;26.15;4.97;;;7.50;99.90;;;;;;5139850;27;20071;-58
2022/12/24 07:07:53;;;;;;;33.70;4.93;;;7.60;99.90;;;;;;5121439;27;20039;-58
2022/12/24 07:10:20;;;;;;;28.90;4.75;;;7.70;99.90;;;;;;5139325;27;20081;-57
2022/12/24 07:12:46;;;;;;;36.22;5.90;;;7.40;99.90;;;;;;5121502;27;20094;-58
2022/12/24 07:15:14;;;;;;;29.38;4.82;;;7.50;99.90;;;;;;5116970;28;20054;-58
2022/12/24 07:17:40;;;;;;;36.50;5.15;;;7.60;99.90;;;;;;5119680;28;20418;-58
2022/12/24 07:20:07;;;;;;;39.25;5.63;;;7.60;99.90;;;;;;5118479;28;20095;-58
2022/12/24 07:22:33;;;;;;;32.75;5.10;;;7.60;99.90;;;;;;5119872;28;20054;-58
2022/12/24 07:24:58;;;;;;;24.98;5.07;;;7.70;99.90;;;;;;5119056;28;20031;-58
2022/12/24 07:27:24;;;;;;;36.67;6.53;;;7.60;99.90;;;;;;5118450;28;20456;-56
2022/12/24 07:29:50;;;;;;;36.08;6.07;;;7.40;99.90;;;;;;5119371;28;20031;-57
2022/12/24 07:32:15;;;;;;;47.88;7.55;;;7.20;99.90;;;;;;5118296;28;20092;-58
2022/12/24 07:34:41;;;;;;;31.17;6.70;;;7.10;99.90;;;;;;5117804;28;20043;-57
2022/12/24 07:37:07;;;;;;;32.30;4.55;;;7.20;99.90;;;;;;5118273;28;20040;-58
2022/12/24 07:39:32;;;;;;;35.38;5.10;;;7.10;99.90;;;;;;5119197;28;20054;-56
2022/12/24 07:41:58;;;;;;;36.72;4.35;;;7.60;99.90;;;;;;5118044;28;20043;-57
2022/12/24 07:44:24;;;;;;;39.00;5.00;;;7.70;99.90;;;;;;5118651;28;20050;-58
2022/12/24 07:46:50;;;;;;;33.50;4.57;;;7.20;99.90;;;;;;5117388;28;20047;-57
2022/12/24 07:49:15;;;;;;;31.42;4.63;;;7.60;99.90;;;;;;5116693;28;20090;-56
2022/12/24 07:51:41;;;;;;;32.88;4.55;;;7.20;99.90;;;;;;5119110;28;20035;-56
2022/12/24 07:54:07;;;;;;;41.03;4.85;;;7.80;99.90;;;;;;5117838;28;20441;-57
2022/12/24 07:56:33;;;;;;;26.55;4.88;;;7.20;99.90;;;;;;5135784;27;20075;-57
2022/12/24 07:58:59;;;;;;;30.35;5.78;;;7.80;99.90;;;;;;5138723;27;20069;-56
2022/12/24 08:01:24;;;;;;;30.67;5.18;;;7.40;99.90;;;;;;5139043;27;20086;-57
2022/12/24 08:03:53;;;;;;;34.05;4.65;;;7.40;99.90;;;;;;5139062;27;20039;-57
2022/12/24 08:06:19;;;;;;;31.60;5.35;;;7.40;99.90;;;;;;5138718;27;20087;-57
2022/12/24 08:08:45;;;;;;;43.38;6.68;;;7.40;99.90;;;;;;5139044;27;20042;-57
2022/12/24 08:11:11;;;;;;;28.15;6.57;;;8.00;99.90;;;;;;5138032;27;20118;-57
2022/12/24 08:13:37;;;;;;;31.90;4.22;;;8.00;99.90;;;;;;5141232;27;20392;-57
2022/12/24 08:16:03;;;;;;;31.13;4.85;;;7.40;99.90;;;;;;5158475;27;20081;-56
2022/12/24 08:18:28;;;;;;;32.05;4.97;;;7.90;99.90;;;;;;5159922;27;20083;-57
2022/12/24 08:20:54;;;;;;;30.50;5.57;;;7.50;99.90;;;;;;5159629;27;20066;-56
2022/12/24 08:23:20;;;;;;;26.15;4.63;;;7.50;99.90;;;;;;5140584;27;20042;-57
2022/12/24 08:25:47;;;;;;;31.75;6.47;;;7.90;99.90;;;;;;5159346;27;20090;-56
2022/12/24 08:28:15;;;;;;;33.72;4.72;;;7.60;99.90;;;;;;5158916;27;20076;-57
2022/12/24 08:30:41;;;;;;;22.83;4.43;;;7.50;99.90;;;;;;5159479;27;20039;-57
2022/12/24 08:33:07;;;;;;;39.78;4.78;;;8.00;99.90;;;;;;5158788;27;20087;-57
2022/12/24 08:35:33;;;;;;;37.72;5.50;;;7.90;99.90;;;;;;5159484;27;20537;-57
2022/12/24 08:37:59;;;;;;;28.80;4.72;;;8.10;99.90;;;;;;5159437;27;20059;-57
2022/12/24 08:40:25;;;;;;;28.90;5.78;;;7.70;99.90;;;;;;5158952;27;20107;-58
2022/12/24 08:42:50;;;;;;;34.10;5.25;;;7.90;99.90;;;;;;5159477;27;20042;-57
2022/12/24 08:45:16;;;;;;;27.17;4.57;;;7.80;99.90;;;;;;5158776;27;20129;-57
2022/12/24 08:47:42;;;;;;;38.75;6.70;;;8.20;99.90;;;;;;5159288;27;20042;-58
2022/12/24 08:50:09;;;;;;;40.35;4.70;;;8.20;99.90;;;;;;5158990;27;20039;-58
2022/12/24 08:52:35;;;;;;;28.27;5.13;;;8.10;99.90;;;;;;5159501;27;20037;-55
2022/12/24 08:55:00;;;;;;;30.30;5.28;;;7.80;99.90;;;;;;5154951;27;20582;-57
2022/12/24 08:57:26;;;;;;;36.15;5.70;;;7.80;99.90;;;;;;5138247;28;20448;-57
2022/12/24 08:59:52;;;;;;;32.72;4.75;;;8.20;99.90;;;;;;5138561;28;20046;-57
2022/12/24 09:02:19;;;;;;;26.25;4.60;;;8.30;99.90;;;;;;5137777;28;20510;-58
2022/12/24 09:04:45;;;;;;;26.33;4.75;;;8.10;99.90;;;;;;5138731;28;20046;-57
2022/12/24 09:07:10;;;;;;;37.33;6.05;;;8.30;99.90;;;;;;5137834;28;20126;-57
2022/12/24 09:09:36;;;;;;;35.80;6.20;;;8.40;99.90;;;;;;5138398;28;20433;-57
2022/12/24 09:12:04;;;;;;;32.35;5.18;;;8.40;99.90;;;;;;5137987;28;20073;-57
2022/12/24 09:14:30;;;;;;;25.98;3.88;;;8.40;99.90;;;;;;5138033;28;20083;-57
2022/12/24 09:16:56;;;;;;;31.02;4.60;;;8.40;99.90;;;;;;5138156;28;20062;-57
2022/12/24 09:19:22;;;;;;;22.45;4.45;;;8.40;99.90;;;;;;5137794;28;20099;-57
2022/12/24 09:21:47;;;;;;;42.78;6.03;;;8.40;99.90;;;;;;5138242;28;20054;-56
2022/12/24 09:24:13;;;;;;;30.88;5.15;;;8.30;99.90;;;;;;5137675;28;20042;-57
2022/12/24 09:26:40;;;;;;;26.42;4.80;;;8.10;99.90;;;;;;5138282;28;20046;-57
2022/12/24 09:29:06;;;;;;;24.80;5.75;;;8.50;99.90;;;;;;5141495;27;20136;-56
2022/12/24 09:31:32;;;;;;;32.47;5.68;;;8.30;99.90;;;;;;5141398;27;20039;-57
2022/12/24 09:33:58;;;;;;;37.20;5.13;;;8.10;99.90;;;;;;5142066;27;20059;-57
2022/12/24 09:36:24;;;;;;;26.85;5.38;;;8.60;99.90;;;;;;5141308;27;20112;-57
2022/12/24 09:38:50;;;;;;;30.88;5.70;;;8.10;99.90;;;;;;5141811;27;20074;-57
2022/12/24 09:41:25;;;;;;;30.23;5.10;;;8.50;99.90;;;;;;5141283;27;20035;-57
2022/12/24 09:43:59;;;;;;;35.22;5.10;;;8.10;99.90;;;;;;5141486;27;20494;-57
2022/12/24 09:46:33;;;;;;;32.97;5.38;;;8.10;99.90;;;;;;5123161;27;20141;-57
2022/12/24 09:49:07;;;;;;;29.67;5.15;;;8.20;99.90;;;;;;5141215;27;20376;-57
2022/12/24 09:52:00;;;;;;;32.70;5.68;;;8.60;99.90;;;;;;5141711;27;20043;-56
2022/12/24 09:54:34;;;;;;;24.67;5.85;;;8.50;99.90;;;;;;5141166;27;20107;-57
2022/12/24 09:57:05;;;;;;;37.42;5.13;;;8.20;99.90;;;;;;5141360;27;20054;-57
2022/12/24 09:59:40;;;;;;;34.63;5.67;;;8.80;99.90;;;;;;5141417;27;20043;-57
2022/12/24 10:02:11;;;;;;;30.50;4.90;;;8.50;99.90;;;;;;5140427;27;20053;-57
2022/12/24 10:04:37;;;;;;;29.73;4.65;;;8.50;99.90;;;;;;5141781;27;20070;-57
2022/12/24 10:07:16;;;;;;;31.95;6.53;;;8.80;99.90;;;;;;5140751;27;20099;-57
2022/12/24 10:09:47;;;;;;;28.95;5.18;;;8.40;99.90;;;;;;5141163;27;20093;-57
2022/12/24 10:12:28;;;;;;;39.35;8.32;;;8.90;99.90;;;;;;5141012;27;20711;-57
2022/12/24 10:14:59;;;;;;;30.60;5.28;;;8.60;99.90;;;;;;5140629;27;20305;-57
2022/12/24 10:18:02;;;;;;;32.35;5.18;;;8.60;99.90;;;;;;5141323;27;20184;-56
2022/12/24 10:20:34;;;;;;;;;;;8.90;99.90;;;;;;5141144;27;20525;-56
2022/12/24 10:23:21;;;;;;;33.20;4.75;;;8.60;99.90;;;;;;5140728;27;19923;-57
2022/12/24 10:26:11;;;;;;;34.13;5.47;;;8.70;99.90;;;;;;5141396;27;20042;-57
2022/12/24 10:28:45;;;;;;;34.90;5.85;;;8.70;99.90;;;;;;5139939;27;20471;-57
2022/12/24 10:31:10;;;;;;;40.05;5.82;;;8.70;99.90;;;;;;5140904;27;20078;-57
2022/12/24 10:33:43;;;;;;;36.00;6.00;;;9.30;99.90;;;;;;5140767;27;20100;-57
2022/12/24 10:36:17;;;;;;;25.73;5.47;;;9.00;99.90;;;;;;5140246;27;20039;-57
2022/12/24 10:38:43;;;;;;;27.60;5.00;;;8.90;99.90;;;;;;5122247;27;20076;-57
2022/12/24 10:41:10;;;;;;;38.03;5.85;;;8.90;99.90;;;;;;5139485;27;20039;-57
2022/12/24 10:43:38;;;;;;;25.85;4.75;;;9.40;99.90;;;;;;5140719;27;20039;-57
2022/12/24 10:46:21;;;;;;;33.97;5.35;;;9.10;99.90;;;;;;5121666;27;20050;-56
2022/12/24 10:49:10;;;;;;;;;;;9.00;99.90;;;;;;5121898;27;20031;-57
2022/12/24 10:51:57;;;;;;;31.42;5.88;;;9.30;99.90;;;;;;5126722;27;19919;-57
2022/12/24 10:54:25;;;;;;;25.73;4.55;;;9.10;99.90;;;;;;5139802;27;20053;-57
2022/12/24 10:56:56;;;;;;;32.78;4.50;;;9.50;99.90;;;;;;5160470;27;20126;-57
2022/12/24 10:59:48;;;;;;;29.35;4.57;;;9.40;99.90;;;;;;5125127;27;20110;-56
2022/12/24 11:02:34;;;;;;;28.83;4.30;;;9.10;99.90;;;;;;5159966;27;20422;-57
2022/12/24 11:05:01;;;;;;;33.05;6.15;;;9.00;99.90;;;;;;5161292;27;20387;-58
2022/12/24 11:07:29;;;;;;;33.80;5.07;;;9.40;99.90;;;;;;5141538;27;20633;-56
2022/12/24 11:10:01;;;;;;;27.63;4.82;;;9.00;99.90;;;;;;5160925;27;20457;-57
2022/12/24 11:12:34;;;;;;;31.17;5.57;;;9.00;99.90;;;;;;5141772;27;20043;-57
2022/12/24 11:15:16;;;;;;;28.02;4.88;;;9.10;99.90;;;;;;5159937;27;20054;-57
2022/12/24 11:17:44;;;;;;;;;;;9.10;99.90;;;;;;5161439;27;20047;-57
2022/12/24 11:20:25;;;;;;;22.10;4.18;;;9.00;99.90;;;;;;5160267;27;20239;-57
2022/12/24 11:22:51;;;;;;;24.20;3.85;;;9.40;99.90;;;;;;5160268;27;20092;-57
2022/12/24 11:25:31;;;;;;;27.83;4.45;;;9.00;99.90;;;;;;5107918;27;20458;-57
2022/12/24 11:28:11;;;;;;;30.40;4.70;;;9.20;99.90;;;;;;5159793;27;20143;-58
2022/12/24 11:30:37;;;;;;;26.00;4.65;;;9.00;99.90;;;;;;5160694;27;20098;-57
2022/12/24 11:33:03;;;;;;;26.17;4.38;;;9.40;99.90;;;;;;5159782;27;20050;-57
2022/12/24 11:35:32;;;;;;;24.83;4.30;;;9.10;99.90;;;;;;5160301;27;20520;-57
2022/12/24 11:38:10;;;;;;;23.38;4.07;;;9.20;99.90;;;;;;5160386;27;20041;-57
2022/12/24 11:40:50;;;;;;;22.25;3.78;;;9.40;99.90;;;;;;5140990;27;20095;-57
2022/12/24 11:43:20;;;;;;;21.08;4.13;;;9.40;99.90;;;;;;5160147;27;20035;-57
2022/12/24 11:45:54;;;;;;;23.48;3.35;;;9.10;99.90;;;;;;5159313;27;20509;-58
2022/12/24 11:48:33;;;;;;;22.10;4.40;;;9.30;99.90;;;;;;5160367;27;20038;-57
2022/12/24 11:51:05;;;;;;;25.23;3.85;;;9.40;99.90;;;;;;5159449;27;20057;-57
2022/12/24 11:53:50;;;;;;;24.90;3.95;;;9.30;99.90;;;;;;5159566;27;20050;-58
2022/12/24 11:56:36;;;;;;;25.48;3.95;;;9.20;99.90;;;;;;5144908;27;20057;-58
2022/12/24 11:59:27;;;;;;;20.75;3.05;;;9.30;99.90;;;;;;5138667;27;20043;-56
2022/12/24 12:02:10;;;;;;;27.70;4.65;;;9.30;99.90;;;;;;5138922;27;20059;-57
2022/12/24 12:04:37;;;;;;;25.15;3.65;;;9.30;99.90;;;;;;5120565;27;20085;-57
2022/12/24 12:07:17;;;;;;;23.50;3.97;;;9.50;99.90;;;;;;5138631;27;20050;-58
2022/12/24 12:09:48;;;;;;;24.15;4.13;;;9.30;99.90;;;;;;5138913;27;20099;-57
2022/12/24 12:12:22;;;;;;;28.25;4.00;;;9.20;99.90;;;;;;5138763;27;20039;-57
2022/12/24 12:15:07;;;;;;;16.52;3.70;;;9.20;99.90;;;;;;5138215;27;20100;-57
2022/12/24 12:17:49;;;;;;;16.40;3.05;;;9.20;99.90;;;;;;5120499;27;20137;-57
2022/12/24 12:20:21;;;;;;;19.77;3.93;;;9.20;99.90;;;;;;5138635;27;20035;-57
2022/12/24 12:22:55;;;;;;;25.50;4.05;;;9.20;99.90;;;;;;5103227;28;20047;-58
2022/12/24 12:25:47;;;;;;;20.60;3.72;;;9.40;99.90;;;;;;5138711;28;20043;-58
2022/12/24 12:28:28;;;;;;;21.63;3.22;;;9.20;99.90;;;;;;5106582;28;20093;-58
2022/12/24 12:31:08;;;;;;;16.40;3.03;;;9.30;99.90;;;;;;5138582;28;20050;-58
2022/12/24 12:33:45;;;;;;;22.23;3.15;;;9.40;99.90;;;;;;5138658;28;20043;-57
2022/12/24 12:36:13;;;;;;;17.48;3.08;;;9.30;99.90;;;;;;5138388;28;20043;-57
2022/12/24 12:38:39;;;;;;;26.42;3.97;;;9.30;99.90;;;;;;5138922;28;20048;-57
2022/12/24 12:41:23;;;;;;;26.42;3.60;;;9.20;99.90;;;;;;5138063;28;20036;-56
2022/12/24 12:43:55;;;;;;;25.65;3.58;;;9.50;99.90;;;;;;5138542;28;20078;-57
2022/12/24 12:46:33;;;;;;;26.77;4.30;;;9.50;99.90;;;;;;5138511;28;20070;-56
2022/12/24 12:49:22;;;;;;;20.30;3.67;;;9.50;99.90;;;;;;5138113;28;20076;-57
2022/12/24 12:52:08;;;;;;;21.70;3.10;;;9.50;99.90;;;;;;5138811;28;20077;-57
2022/12/24 12:54:55;;;;;;;19.98;3.33;;;9.40;99.90;;;;;;5138298;27;20056;-57
2022/12/24 12:57:25;;;;;;;19.42;3.50;;;9.40;99.90;;;;;;5140423;27;20469;-57
2022/12/24 12:59:58;;;;;;;19.10;3.10;;;9.40;99.90;;;;;;5159432;27;20042;-56
2022/12/24 13:02:51;;;;;;;22.85;3.53;;;9.50;99.90;;;;;;5159463;27;20063;-56
2022/12/24 13:05:59;;;;;;;30.30;6.57;;;9.50;99.90;;;;;;5144586;27;20054;-56